Time;durP1;ratioP1;P1;durP2;ratioP2;P2;SDS_P1;SDS_P2;PMS_P1;PMS_P2;Temp;Humidity;BMP_temperature;BMP_pressure;BME280_temperature;BME280_humidity;BME280_pressure;Samples;Min_cycle;Max_cycle;Signal;HPM_P1;HPM_P2
2023/01/15 00:01:52;;;;;;;0.80;0.80;;;15.40;74.70;;;;;;5094428;28;20532;-71
2023/01/15 00:04:19;;;;;;;0.70;0.70;;;15.40;74.60;;;;;;5093567;28;20561;-71
2023/01/15 00:06:45;;;;;;;1.70;1.37;;;15.40;74.70;;;;;;5092725;28;20453;-71
2023/01/15 00:09:15;;;;;;;0.97;0.57;;;15.50;74.60;;;;;;5091312;28;20806;-71
2023/01/15 00:11:42;;;;;;;0.60;0.60;;;15.40;74.50;;;;;;5073896;28;20467;-71
2023/01/15 00:14:09;;;;;;;0.57;0.50;;;15.40;74.80;;;;;;5073903;28;20836;-71
2023/01/15 00:16:39;;;;;;;0.60;0.60;;;15.30;74.20;;;;;;5073020;28;20483;-71
2023/01/15 00:19:09;;;;;;;0.57;0.57;;;15.40;74.50;;;;;;5078817;28;20474;-71
2023/01/15 00:21:36;;;;;;;0.80;0.80;;;15.40;74.50;;;;;;5073429;28;20469;-71
2023/01/15 00:29:33;;;;;;;0.70;0.70;;;15.40;74.10;;;;;;5077660;28;20999;-71
2023/01/15 00:32:04;;;;;;;0.70;0.70;;;15.50;74.00;;;;;;5080415;28;20504;-71
2023/01/15 00:34:31;;;;;;;0.63;0.50;;;15.50;73.80;;;;;;5090622;28;20534;-71
2023/01/15 00:36:58;;;;;;;0.60;0.60;;;15.50;73.70;;;;;;5086368;28;20490;-71
2023/01/15 00:39:26;;;;;;;0.63;0.63;;;15.50;73.90;;;;;;5072802;28;20501;-71
2023/01/15 00:41:53;;;;;;;0.70;0.67;;;15.40;74.10;;;;;;5073480;28;20491;-71
2023/01/15 00:44:21;;;;;;;0.60;0.60;;;15.40;74.10;;;;;;5085902;28;20565;-71
2023/01/15 00:46:48;;;;;;;0.70;0.70;;;15.50;73.80;;;;;;5089759;28;20531;-71
2023/01/15 00:49:16;;;;;;;0.90;0.80;;;15.40;73.90;;;;;;5073146;28;20524;-71
2023/01/15 00:51:43;;;;;;;0.73;0.60;;;15.40;73.40;;;;;;5072778;28;20473;-72
2023/01/15 00:54:10;;;;;;;0.90;0.70;;;15.40;73.40;;;;;;5084124;28;20446;-71
2023/01/15 00:56:37;;;;;;;0.73;0.57;;;15.50;73.40;;;;;;5090656;28;20926;-71
2023/01/15 00:59:05;;;;;;;0.83;0.70;;;15.50;73.20;;;;;;5112950;28;20452;-71
2023/01/15 01:01:32;;;;;;;1.10;0.50;;;15.50;73.20;;;;;;5112871;28;20545;-71
2023/01/15 01:03:59;;;;;;;0.60;0.60;;;15.50;73.60;;;;;;5113489;28;20566;-71
2023/01/15 01:06:28;;;;;;;0.93;0.60;;;15.50;74.10;;;;;;5098625;28;20455;-71
2023/01/15 01:08:55;;;;;;;0.40;0.40;;;15.50;74.30;;;;;;5072896;28;20861;-71
2023/01/15 01:11:25;;;;;;;0.53;0.53;;;15.50;74.60;;;;;;5072185;28;20462;-71
2023/01/15 01:13:52;;;;;;;0.50;0.50;;;15.50;75.10;;;;;;5072507;28;20443;-71
2023/01/15 01:16:25;;;;;;;0.83;0.67;;;15.40;75.20;;;;;;5072296;28;20470;-71
2023/01/15 01:18:53;;;;;;;0.77;0.60;;;15.20;75.90;;;;;;5076682;28;20470;-71
2023/01/15 01:21:20;;;;;;;0.50;0.50;;;15.20;75.90;;;;;;5072003;28;20475;-71
2023/01/15 01:23:49;;;;;;;0.60;0.50;;;15.20;76.00;;;;;;5072590;28;20479;-71
2023/01/15 01:26:16;;;;;;;0.50;0.50;;;15.20;76.20;;;;;;5071994;28;20954;-71
2023/01/15 01:28:43;;;;;;;0.43;0.43;;;15.20;76.30;;;;;;5090772;28;20446;-72
2023/01/15 01:31:10;;;;;;;0.60;0.60;;;15.20;76.50;;;;;;5076833;28;20447;-71
2023/01/15 01:33:40;;;;;;;1.30;0.60;;;15.20;76.70;;;;;;5071716;28;20479;-71
2023/01/15 01:36:07;;;;;;;0.50;0.50;;;15.20;76.90;;;;;;5072248;28;20451;-71
2023/01/15 01:38:34;;;;;;;0.50;0.50;;;15.10;77.10;;;;;;5088621;28;20942;-71
2023/01/15 01:41:02;;;;;;;0.67;0.50;;;15.10;77.20;;;;;;5092281;28;20449;-71
2023/01/15 01:43:30;;;;;;;0.40;0.40;;;15.10;77.40;;;;;;5073167;28;20479;-71
2023/01/15 01:45:57;;;;;;;0.67;0.50;;;15.10;77.70;;;;;;5080701;28;20447;-71
2023/01/15 01:48:30;;;;;;;0.63;0.63;;;15.10;77.30;;;;;;5075844;28;20452;-71
2023/01/15 01:51:04;;;;;;;0.60;0.60;;;15.10;77.90;;;;;;5072105;28;20482;-71
2023/01/15 01:53:33;;;;;;;0.60;0.57;;;15.00;77.80;;;;;;5070974;28;20490;-71
2023/01/15 01:56:02;;;;;;;0.60;0.50;;;15.00;77.90;;;;;;5091307;28;20446;-71
2023/01/15 01:58:32;;;;;;;0.50;0.50;;;15.10;78.20;;;;;;5076962;28;20453;-71
2023/01/15 02:01:01;;;;;;;0.43;0.43;;;15.00;78.70;;;;;;5071485;28;20451;-71
2023/01/15 02:03:36;;;;;;;0.63;0.60;;;15.10;78.60;;;;;;5089323;28;20521;-71
2023/01/15 02:06:08;;;;;;;0.90;0.60;;;15.10;78.90;;;;;;5092027;28;20430;-71
2023/01/15 02:08:38;;;;;;;0.93;0.50;;;15.20;79.30;;;;;;5074740;28;20640;-71
2023/01/15 02:11:11;;;;;;;0.77;0.40;;;15.10;79.10;;;;;;5088831;28;20482;-71
2023/01/15 02:13:40;;;;;;;0.63;0.60;;;15.20;79.20;;;;;;5091596;28;20522;-71
2023/01/15 02:16:15;;;;;;;0.60;0.60;;;15.20;79.10;;;;;;5091759;28;20845;-71
2023/01/15 02:18:50;;;;;;;0.50;0.50;;;15.20;79.80;;;;;;5074189;28;20748;-72
2023/01/15 02:21:26;;;;;;;0.70;0.53;;;15.20;79.70;;;;;;5070536;28;20516;-71
2023/01/15 02:24:07;;;;;;;0.40;0.40;;;15.10;79.80;;;;;;5071620;28;20471;-72
2023/01/15 02:27:04;;;;;;;0.57;0.57;;;15.20;80.30;;;;;;5070480;28;20944;-71
2023/01/15 02:29:39;;;;;;;0.40;0.40;;;15.10;80.50;;;;;;5063745;28;20456;-71
2023/01/15 02:32:11;;;;;;;0.80;0.67;;;15.10;79.90;;;;;;5071630;28;20918;-71
2023/01/15 02:34:43;;;;;;;0.50;0.50;;;15.10;80.40;;;;;;5070972;28;20458;-71
2023/01/15 02:37:16;;;;;;;0.53;0.40;;;15.10;80.40;;;;;;5086016;28;20485;-71
2023/01/15 02:39:45;;;;;;;0.30;0.30;;;15.00;80.70;;;;;;5085495;28;20450;-71
2023/01/15 02:42:16;;;;;;;0.47;0.40;;;15.00;81.60;;;;;;5086986;28;20507;-71
2023/01/15 02:44:47;;;;;;;0.60;0.60;;;15.00;81.00;;;;;;5074832;28;20994;-71
2023/01/15 02:47:16;;;;;;;0.60;0.60;;;15.00;80.70;;;;;;5071159;28;20519;-71
2023/01/15 02:49:46;;;;;;;0.80;0.67;;;15.00;81.20;;;;;;5070709;28;20447;-71
2023/01/15 02:52:19;;;;;;;0.40;0.33;;;15.00;81.40;;;;;;5086370;28;20591;-71
2023/01/15 02:54:49;;;;;;;0.57;0.40;;;15.00;81.30;;;;;;5090786;28;20433;-71
2023/01/15 02:57:20;;;;;;;0.67;0.47;;;15.10;81.30;;;;;;5087684;28;20443;-71
2023/01/15 02:59:49;;;;;;;0.60;0.60;;;15.10;80.90;;;;;;5070213;28;20517;-71
2023/01/15 03:02:20;;;;;;;0.33;0.33;;;15.10;80.60;;;;;;5087075;28;20473;-71
2023/01/15 03:04:52;;;;;;;0.50;0.50;;;15.10;80.50;;;;;;5090809;28;20494;-71
2023/01/15 03:07:25;;;;;;;0.80;0.43;;;15.10;80.10;;;;;;5085626;28;20443;-71
2023/01/15 03:09:53;;;;;;;0.57;0.57;;;15.10;80.30;;;;;;5071204;28;20432;-71
2023/01/15 03:12:28;;;;;;;0.50;0.50;;;15.10;80.00;;;;;;5086947;28;20459;-71
2023/01/15 03:15:03;;;;;;;0.30;0.30;;;15.20;79.70;;;;;;5055809;28;20446;-71
2023/01/15 03:17:35;;;;;;;0.40;0.40;;;15.30;79.20;;;;;;5090326;28;21016;-71
2023/01/15 03:20:10;;;;;;;0.40;0.40;;;15.30;78.60;;;;;;5081298;28;20947;-71
2023/01/15 03:22:40;;;;;;;0.50;0.50;;;15.30;78.70;;;;;;5086173;28;20480;-71
2023/01/15 03:25:12;;;;;;;0.30;0.30;;;15.20;79.10;;;;;;5094984;28;20485;-71
2023/01/15 03:27:40;;;;;;;0.40;0.40;;;15.20;79.20;;;;;;5094396;28;20437;-71
2023/01/15 03:30:10;;;;;;;0.30;0.30;;;15.20;78.80;;;;;;5075407;28;20447;-71
2023/01/15 03:32:37;;;;;;;0.60;0.60;;;15.20;79.50;;;;;;5080162;28;20447;-71
2023/01/15 03:35:09;;;;;;;0.50;0.50;;;15.30;79.40;;;;;;5074789;28;20451;-71
2023/01/15 03:37:36;;;;;;;0.50;0.50;;;15.30;79.10;;;;;;5074101;28;20852;-71
2023/01/15 03:40:05;;;;;;;1.17;0.50;;;15.30;78.70;;;;;;5092415;28;20476;-70
2023/01/15 03:43:39;;;;;;;0.50;0.50;;;15.30;78.90;;;;;;5076779;28;20559;-71
2023/01/15 03:45:38;;;;;;;0.40;0.40;;;15.30;78.90;;;;;;5090250;28;20442;-70
2023/01/15 03:48:11;;;;;;;0.40;0.40;;;15.40;79.10;;;;;;5081685;28;20442;-70
2023/01/15 03:50:45;;;;;;;0.80;0.50;;;15.40;79.90;;;;;;5075596;28;20903;-71
2023/01/15 03:53:17;;;;;;;0.50;0.50;;;15.40;81.10;;;;;;5093099;28;20478;-70
2023/01/15 03:55:52;;;;;;;0.53;0.40;;;15.30;82.50;;;;;;5076564;28;20522;-71
2023/01/15 03:58:26;;;;;;;0.70;0.70;;;15.30;82.20;;;;;;5097528;28;20448;-72
2023/01/15 04:00:57;;;;;;;1.17;0.60;;;15.20;81.90;;;;;;5091300;28;20453;-71
2023/01/15 04:03:25;;;;;;;0.50;0.50;;;15.30;81.90;;;;;;5085389;28;20842;-71
2023/01/15 04:05:55;;;;;;;1.23;0.40;;;15.30;81.10;;;;;;5094319;28;20553;-71
2023/01/15 04:08:23;;;;;;;0.30;0.30;;;15.30;80.20;;;;;;5092593;28;20454;-71
2023/01/15 04:10:54;;;;;;;0.30;0.30;;;15.30;79.40;;;;;;5090722;28;20450;-71
2023/01/15 04:13:22;;;;;;;0.30;0.30;;;15.30;78.80;;;;;;5084520;28;20450;-71
2023/01/15 04:15:50;;;;;;;0.30;0.30;;;15.30;78.10;;;;;;5093207;28;20807;-71
2023/01/15 04:18:17;;;;;;;0.30;0.30;;;15.20;77.50;;;;;;5092479;28;20577;-71
2023/01/15 04:20:44;;;;;;;0.60;0.43;;;15.10;77.20;;;;;;5074426;28;20823;-71
2023/01/15 04:23:11;;;;;;;0.30;0.30;;;15.10;76.70;;;;;;5094111;28;20474;-71
2023/01/15 04:25:39;;;;;;;0.40;0.40;;;15.00;76.10;;;;;;5080640;28;20565;-71
2023/01/15 04:28:07;;;;;;;0.20;0.20;;;15.00;75.80;;;;;;5073756;28;20452;-71
2023/01/15 04:30:35;;;;;;;0.30;0.30;;;14.90;75.60;;;;;;5083482;28;20483;-71
2023/01/15 04:33:03;;;;;;;0.40;0.40;;;14.70;75.10;;;;;;5073082;28;20951;-71
2023/01/15 04:35:30;;;;;;;0.83;0.30;;;14.60;75.00;;;;;;5072754;28;20444;-71
2023/01/15 04:37:59;;;;;;;0.20;0.20;;;14.50;75.40;;;;;;5087432;28;20454;-71
2023/01/15 04:45:58;;;;;;;0.37;0.37;;;14.30;74.40;;;;;;5073201;28;20454;-71
2023/01/15 04:48:24;;;;;;;0.33;0.33;;;14.30;75.80;;;;;;5083414;28;20455;-71
2023/01/15 04:50:52;;;;;;;0.77;0.43;;;14.30;74.80;;;;;;5082135;28;20443;-70
2023/01/15 04:53:19;;;;;;;0.30;0.30;;;14.20;74.40;;;;;;5086608;28;20481;-70
2023/01/15 04:55:45;;;;;;;0.37;0.37;;;14.10;74.50;;;;;;5092776;28;20458;-71
2023/01/15 04:58:12;;;;;;;0.33;0.33;;;14.10;74.70;;;;;;5106088;28;20520;-71
2023/01/15 05:00:40;;;;;;;0.27;0.27;;;14.10;75.00;;;;;;5095126;28;20442;-72
2023/01/15 05:03:08;;;;;;;0.47;0.40;;;14.00;74.50;;;;;;5092545;28;20965;-72
2023/01/15 05:05:35;;;;;;;0.57;0.47;;;13.80;74.70;;;;;;5092293;28;20486;-72
2023/01/15 05:08:02;;;;;;;0.40;0.40;;;13.90;75.20;;;;;;5093266;28;20447;-71
2023/01/15 05:10:29;;;;;;;0.30;0.30;;;13.70;75.70;;;;;;5092651;28;20458;-72
2023/01/15 05:12:56;;;;;;;0.30;0.30;;;13.60;75.70;;;;;;5074074;28;20469;-72
2023/01/15 05:15:23;;;;;;;0.43;0.30;;;13.60;76.10;;;;;;5072792;28;20855;-71
2023/01/15 05:17:50;;;;;;;0.40;0.40;;;13.40;76.00;;;;;;5071767;28;20997;-72
2023/01/15 05:20:18;;;;;;;0.20;0.20;;;13.20;76.30;;;;;;5072318;28;20454;-72
2023/01/15 05:22:45;;;;;;;0.40;0.40;;;13.20;76.30;;;;;;5085664;28;20478;-72
2023/01/15 05:25:12;;;;;;;0.30;0.30;;;13.20;76.90;;;;;;5072111;28;20483;-72
2023/01/15 05:27:39;;;;;;;0.40;0.40;;;13.30;76.70;;;;;;5071577;28;20483;-72
2023/01/15 05:30:08;;;;;;;1.00;0.50;;;13.30;76.10;;;;;;5072541;28;20464;-72
2023/01/15 05:32:35;;;;;;;0.43;0.43;;;13.30;76.60;;;;;;5075975;28;20458;-72
2023/01/15 05:35:01;;;;;;;0.40;0.40;;;13.20;77.50;;;;;;5077980;28;20443;-72
2023/01/15 05:37:31;;;;;;;0.47;0.47;;;13.20;77.20;;;;;;5092668;28;20450;-72
2023/01/15 05:39:57;;;;;;;0.50;0.50;;;13.10;77.20;;;;;;5081119;28;20447;-71
2023/01/15 05:42:24;;;;;;;0.57;0.57;;;13.20;77.20;;;;;;5072859;28;20973;-72
2023/01/15 05:44:51;;;;;;;0.50;0.50;;;13.30;77.00;;;;;;5070713;28;20490;-71
2023/01/15 05:47:18;;;;;;;0.60;0.60;;;13.30;77.00;;;;;;5084146;28;20447;-72
2023/01/15 05:49:47;;;;;;;0.47;0.47;;;13.30;77.00;;;;;;5071434;28;20490;-72
2023/01/15 05:52:14;;;;;;;0.40;0.40;;;13.10;77.00;;;;;;5082796;28;20486;-72
2023/01/15 05:54:42;;;;;;;0.30;0.30;;;13.10;77.10;;;;;;5091693;28;20450;-72
2023/01/15 05:57:11;;;;;;;0.20;0.20;;;13.20;77.20;;;;;;5096153;28;20691;-72
2023/01/15 05:59:39;;;;;;;0.20;0.20;;;13.10;75.70;;;;;;5090903;28;21047;-71
2023/01/15 06:02:05;;;;;;;0.20;0.20;;;12.80;75.30;;;;;;5081501;28;20442;-72
2023/01/15 06:04:33;;;;;;;0.40;0.40;;;12.60;75.20;;;;;;5091885;28;20482;-72
2023/01/15 06:06:59;;;;;;;0.43;0.43;;;12.40;75.70;;;;;;5092044;28;20454;-71
2023/01/15 06:09:28;;;;;;;0.57;0.57;;;12.20;75.90;;;;;;5091971;28;20457;-70
2023/01/15 06:11:57;;;;;;;0.40;0.40;;;12.00;76.50;;;;;;5083156;28;20524;-71
2023/01/15 06:14:24;;;;;;;0.33;0.33;;;12.10;76.30;;;;;;5082203;28;20439;-71
2023/01/15 06:16:50;;;;;;;0.27;0.27;;;12.10;76.30;;;;;;5091461;28;20454;-71
2023/01/15 06:19:17;;;;;;;0.20;0.20;;;12.10;76.20;;;;;;5092060;28;20449;-71
2023/01/15 06:21:44;;;;;;;0.60;0.40;;;12.10;75.90;;;;;;5067148;28;20951;-71
2023/01/15 06:24:11;;;;;;;0.40;0.40;;;11.90;75.70;;;;;;5080579;28;20454;-71
2023/01/15 06:26:39;;;;;;;0.33;0.33;;;11.90;76.00;;;;;;5091238;28;20457;-70
2023/01/15 06:29:07;;;;;;;0.47;0.40;;;11.80;75.80;;;;;;5091688;28;20450;-71
2023/01/15 06:31:34;;;;;;;0.50;0.37;;;11.80;76.10;;;;;;5091717;28;20450;-71
2023/01/15 06:34:01;;;;;;;0.30;0.30;;;11.70;75.50;;;;;;5086232;28;20453;-71
2023/01/15 06:36:28;;;;;;;1.47;0.40;;;11.70;75.90;;;;;;5081346;28;20455;-71
2023/01/15 06:38:56;;;;;;;0.57;0.37;;;11.50;75.40;;;;;;5070934;28;20457;-71
2023/01/15 06:49:41;;;;;;;0.20;0.20;;;11.50;76.40;;;;;;5072437;28;20437;-70
2023/01/15 06:52:10;;;;;;;0.30;0.30;;;11.30;76.30;;;;;;5070861;28;20577;-70
2023/01/15 06:54:37;;;;;;;0.47;0.47;;;11.40;76.70;;;;;;5070979;28;20450;-70
2023/01/15 06:57:03;;;;;;;0.30;0.30;;;11.30;77.20;;;;;;5085111;28;20442;-70
2023/01/15 06:59:32;;;;;;;0.67;0.40;;;11.30;77.00;;;;;;5103277;28;20461;-69
2023/01/15 07:01:59;;;;;;;0.50;0.50;;;11.30;76.30;;;;;;5075488;28;20455;-71
2023/01/15 07:04:25;;;;;;;0.30;0.30;;;11.20;76.50;;;;;;5074936;28;20479;-71
2023/01/15 07:06:52;;;;;;;0.37;0.37;;;11.30;76.90;;;;;;5079268;28;20541;-71
2023/01/15 07:09:19;;;;;;;0.33;0.33;;;11.20;76.50;;;;;;5095141;28;20487;-70
2023/01/15 07:11:49;;;;;;;1.30;0.50;;;11.20;76.40;;;;;;5092636;28;20905;-70
2023/01/15 07:14:17;;;;;;;0.30;0.30;;;11.20;76.50;;;;;;5083098;28;20454;-71
2023/01/15 07:16:45;;;;;;;0.40;0.40;;;11.20;76.10;;;;;;5074662;28;20443;-70
2023/01/15 07:19:12;;;;;;;0.40;0.40;;;11.20;75.90;;;;;;5074560;28;20466;-70
2023/01/15 07:21:39;;;;;;;0.20;0.20;;;11.20;75.50;;;;;;5085789;28;20446;-70
2023/01/15 07:24:07;;;;;;;0.33;0.30;;;11.10;76.40;;;;;;5074648;28;20943;-71
2023/01/15 07:26:34;;;;;;;0.30;0.30;;;11.00;76.00;;;;;;5074517;28;21083;-71
2023/01/15 07:29:01;;;;;;;0.30;0.30;;;11.00;76.30;;;;;;5074406;28;20451;-71
2023/01/15 07:31:28;;;;;;;0.30;0.30;;;10.90;76.60;;;;;;5086456;28;20446;-69
2023/01/15 07:33:57;;;;;;;0.30;0.30;;;11.00;76.30;;;;;;5072929;28;20443;-70
2023/01/15 07:36:24;;;;;;;0.40;0.40;;;10.90;76.20;;;;;;5090249;28;20784;-71
2023/01/15 07:38:51;;;;;;;0.70;0.40;;;10.90;76.70;;;;;;5094187;28;20532;-71
2023/01/15 07:49:48;;;;;;;0.80;0.60;;;10.80;78.60;;;;;;5094753;28;20407;-71
2023/01/15 07:52:17;;;;;;;0.50;0.50;;;10.80;80.10;;;;;;5088354;28;20570;-71
2023/01/15 07:54:44;;;;;;;0.40;0.40;;;10.80;79.60;;;;;;5079065;28;20517;-71
2023/01/15 07:57:11;;;;;;;0.63;0.63;;;10.80;79.60;;;;;;5098498;28;20444;-71
2023/01/15 07:59:38;;;;;;;0.53;0.53;;;10.70;80.90;;;;;;5115012;28;20801;-71
2023/01/15 08:02:06;;;;;;;0.60;0.60;;;10.60;80.50;;;;;;5090854;28;20538;-71
2023/01/15 08:04:34;;;;;;;0.60;0.60;;;10.70;80.60;;;;;;5081414;28;20529;-71
2023/01/15 08:07:01;;;;;;;0.87;0.83;;;10.60;80.20;;;;;;5086112;28;20546;-71
2023/01/15 08:09:29;;;;;;;1.47;0.83;;;10.60;80.50;;;;;;5074449;28;20470;-71
2023/01/15 08:17:27;;;;;;;0.60;0.60;;;10.50;79.80;;;;;;5073535;28;20443;-71
2023/01/15 08:19:55;;;;;;;0.70;0.70;;;10.50;80.00;;;;;;5078242;28;20461;-70
2023/01/15 08:22:22;;;;;;;0.40;0.40;;;10.50;79.90;;;;;;5079261;28;20451;-71
2023/01/15 08:24:49;;;;;;;0.30;0.30;;;10.40;79.80;;;;;;5093596;28;20492;-70
2023/01/15 08:27:16;;;;;;;0.57;0.40;;;10.40;79.70;;;;;;5093877;28;20489;-71
2023/01/15 08:29:43;;;;;;;0.30;0.30;;;10.40;80.00;;;;;;5093109;28;21006;-72
2023/01/15 08:32:10;;;;;;;0.43;0.43;;;10.40;80.00;;;;;;5080674;28;20545;-71
2023/01/15 08:34:37;;;;;;;0.40;0.40;;;10.50;79.70;;;;;;5077326;28;20451;-72
2023/01/15 08:37:05;;;;;;;0.40;0.40;;;10.40;79.90;;;;;;5072540;28;20482;-71
2023/01/15 08:39:32;;;;;;;0.33;0.33;;;10.40;79.90;;;;;;5073513;28;20487;-70
2023/01/15 08:41:59;;;;;;;0.47;0.40;;;10.40;79.80;;;;;;5056913;28;20463;-71
2023/01/15 08:44:26;;;;;;;0.73;0.70;;;10.30;79.70;;;;;;5073848;28;20447;-71
2023/01/15 08:46:53;;;;;;;0.83;0.47;;;10.30;79.70;;;;;;5072632;28;20577;-72
2023/01/15 08:49:21;;;;;;;0.40;0.40;;;10.20;79.50;;;;;;5085583;28;20455;-71
2023/01/15 08:51:50;;;;;;;0.60;0.60;;;10.20;79.80;;;;;;5078575;28;20455;-72
2023/01/15 08:54:20;;;;;;;0.33;0.33;;;10.20;79.60;;;;;;5092925;28;20596;-71
2023/01/15 08:56:48;;;;;;;0.40;0.40;;;10.20;79.30;;;;;;5093358;28;20443;-71
2023/01/15 08:59:15;;;;;;;0.40;0.40;;;10.20;79.30;;;;;;5113327;28;20952;-71
2023/01/15 09:01:43;;;;;;;0.50;0.50;;;10.10;78.90;;;;;;5099284;28;20443;-71
2023/01/15 09:04:13;;;;;;;0.73;0.57;;;10.10;79.10;;;;;;5092776;28;20450;-71
2023/01/15 09:06:40;;;;;;;0.50;0.50;;;10.10;79.00;;;;;;5086386;28;20483;-71
2023/01/15 09:09:06;;;;;;;1.07;0.40;;;10.00;79.00;;;;;;5072302;28;20812;-71
2023/01/15 09:11:35;;;;;;;1.20;0.63;;;10.00;78.60;;;;;;5086902;28;20948;-71
2023/01/15 09:14:01;;;;;;;0.80;0.80;;;10.00;78.10;;;;;;5074229;28;20939;-71
2023/01/15 09:16:30;;;;;;;0.67;0.67;;;10.00;78.50;;;;;;5089246;28;20449;-71
2023/01/15 09:18:57;;;;;;;0.90;0.90;;;9.90;78.80;;;;;;5091243;28;20704;-71
2023/01/15 09:21:24;;;;;;;1.70;0.90;;;9.80;79.50;;;;;;5091846;28;20863;-71
2023/01/15 09:23:51;;;;;;;1.23;0.90;;;9.80;80.00;;;;;;5091290;28;20454;-71
2023/01/15 09:26:27;;;;;;;0.93;0.70;;;9.90;80.50;;;;;;5092514;28;20481;-71
2023/01/15 09:28:56;;;;;;;0.70;0.70;;;10.00;79.20;;;;;;5091714;28;20911;-71
2023/01/15 09:31:23;;;;;;;0.50;0.50;;;9.80;80.10;;;;;;5084909;28;20539;-70
2023/01/15 09:33:50;;;;;;;1.17;0.70;;;9.80;80.10;;;;;;5071650;28;20451;-71
2023/01/15 09:36:18;;;;;;;1.27;0.80;;;9.70;80.50;;;;;;5090993;28;20818;-71
2023/01/15 09:38:45;;;;;;;0.53;0.53;;;9.80;80.90;;;;;;5091653;28;20935;-71
2023/01/15 09:42:04;;;;;;;0.50;0.50;;;9.70;80.70;;;;;;5092773;28;20590;-71
2023/01/15 09:44:16;;;;;;;1.63;1.37;;;9.70;81.30;;;;;;5079517;28;20451;-71
2023/01/15 09:46:53;;;;;;;0.97;0.80;;;9.70;81.00;;;;;;5091490;28;20524;-71
2023/01/15 09:49:32;;;;;;;1.83;1.40;;;9.80;80.50;;;;;;5092411;28;20427;-71
2023/01/15 09:52:12;;;;;;;4.00;2.00;;;9.80;80.20;;;;;;5074554;28;20785;-71
2023/01/15 09:54:54;;;;;;;1.67;1.57;;;9.70;80.40;;;;;;5085987;28;20451;-71
2023/01/15 09:57:24;;;;;;;3.07;1.90;;;9.70;80.50;;;;;;5097585;28;20441;-71
2023/01/15 09:59:59;;;;;;;1.30;1.20;;;9.80;80.20;;;;;;5094522;28;20482;-71
2023/01/15 10:02:32;;;;;;;1.00;0.90;;;9.80;80.30;;;;;;5092257;28;20438;-72
2023/01/15 10:05:04;;;;;;;0.80;0.80;;;9.60;80.60;;;;;;5078211;28;20485;-72
2023/01/15 10:07:38;;;;;;;1.10;1.00;;;9.60;80.60;;;;;;5076394;28;20447;-71
2023/01/15 10:10:11;;;;;;;0.90;0.90;;;9.60;80.70;;;;;;5070846;28;20514;-71
2023/01/15 10:12:39;;;;;;;2.30;1.90;;;9.50;80.60;;;;;;5071234;28;20491;-71
2023/01/15 10:15:23;;;;;;;1.77;1.17;;;9.60;80.90;;;;;;5071928;28;20466;-71
2023/01/15 10:17:53;;;;;;;1.47;1.13;;;9.70;80.80;;;;;;5072138;28;20559;-72
2023/01/15 10:20:38;;;;;;;1.73;1.50;;;9.60;80.70;;;;;;5090962;28;20807;-72
2023/01/15 10:23:24;;;;;;;2.67;1.93;;;9.60;80.90;;;;;;5091256;28;20473;-72
2023/01/15 10:25:57;;;;;;;1.63;1.10;;;9.60;80.50;;;;;;5090425;28;20467;-72
2023/01/15 10:28:29;;;;;;;1.33;1.23;;;9.50;81.00;;;;;;5078638;28;20535;-72
2023/01/15 10:31:04;;;;;;;2.80;1.30;;;9.60;81.00;;;;;;5078810;28;20509;-72
2023/01/15 10:33:54;;;;;;;1.57;0.80;;;9.50;81.20;;;;;;5071195;28;20967;-72
2023/01/15 10:36:26;;;;;;;2.20;0.90;;;9.50;81.00;;;;;;5076126;28;20538;-71
2023/01/15 10:39:01;;;;;;;0.90;0.90;;;9.50;80.60;;;;;;5071163;28;20432;-72
2023/01/15 10:41:38;;;;;;;1.03;0.90;;;9.40;81.00;;;;;;5071120;28;20455;-72
2023/01/15 10:44:12;;;;;;;1.57;0.90;;;9.30;81.10;;;;;;5086086;28;20926;-72
2023/01/15 10:46:44;;;;;;;1.13;0.90;;;9.40;81.00;;;;;;5087658;28;20470;-71
2023/01/15 10:49:14;;;;;;;0.70;0.70;;;9.40;80.60;;;;;;5074751;28;20518;-72
2023/01/15 10:51:44;;;;;;;1.70;1.00;;;9.30;80.40;;;;;;5071092;28;20435;-72
2023/01/15 10:54:20;;;;;;;0.77;0.77;;;9.40;80.60;;;;;;5070622;28;20490;-71
2023/01/15 10:56:55;;;;;;;1.33;0.90;;;9.40;79.80;;;;;;5072389;28;20446;-71
2023/01/15 10:59:30;;;;;;;1.03;0.80;;;9.20;79.40;;;;;;5079313;28;20931;-72
2023/01/15 11:02:01;;;;;;;2.17;1.00;;;9.40;79.90;;;;;;5078685;28;20434;-72
2023/01/15 11:04:31;;;;;;;1.33;0.60;;;9.30;78.10;;;;;;5082109;28;20481;-72
2023/01/15 11:06:59;;;;;;;1.27;0.77;;;9.20;78.50;;;;;;5083167;28;20479;-72
2023/01/15 11:09:31;;;;;;;1.13;0.70;;;9.20;78.10;;;;;;5071264;28;20785;-72
2023/01/15 11:20:33;;;;;;;0.80;0.70;;;9.10;76.10;;;;;;5086276;28;20536;-72
2023/01/15 11:23:08;;;;;;;0.50;0.50;;;9.10;76.10;;;;;;5090739;28;20439;-72
2023/01/15 11:25:38;;;;;;;2.43;1.90;;;9.20;76.00;;;;;;5081373;28;20471;-72
2023/01/15 11:28:07;;;;;;;3.17;1.83;;;9.20;74.90;;;;;;5080893;28;20458;-71
2023/01/15 11:30:37;;;;;;;4.87;2.57;;;9.20;75.20;;;;;;5083312;28;20855;-72
2023/01/15 11:33:19;;;;;;;6.93;3.07;;;9.20;75.20;;;;;;5070390;28;20454;-72
2023/01/15 11:35:51;;;;;;;2.43;1.47;;;9.10;75.10;;;;;;5070910;28;20451;-72
2023/01/15 11:38:21;;;;;;;2.27;1.70;;;9.30;75.30;;;;;;5070845;28;20515;-72
2023/01/15 11:40:59;;;;;;;1.87;1.33;;;9.10;74.50;;;;;;5071570;28;20451;-72
2023/01/15 11:52:04;;;;;;;0.97;0.77;;;9.00;75.70;;;;;;5078496;28;20556;-72
2023/01/15 11:54:33;;;;;;;3.57;1.80;;;9.10;75.80;;;;;;5082921;28;20444;-72
2023/01/15 11:56:59;;;;;;;1.90;1.53;;;9.10;75.10;;;;;;5092941;28;20446;-72
2023/01/15 11:59:26;;;;;;;1.83;1.47;;;9.20;75.20;;;;;;5090508;28;20488;-72
2023/01/15 12:01:58;;;;;;;1.40;1.20;;;9.20;75.20;;;;;;5085228;28;20487;-72
2023/01/15 12:04:35;;;;;;;2.80;1.37;;;9.30;75.00;;;;;;5099792;28;20456;-71
2023/01/15 12:07:04;;;;;;;1.43;1.27;;;9.30;74.50;;;;;;5113057;28;20469;-72
2023/01/15 12:09:49;;;;;;;2.33;1.40;;;9.20;74.70;;;;;;5093760;28;20449;-72
2023/01/15 12:12:27;;;;;;;3.30;1.90;;;9.40;74.40;;;;;;5093525;28;20458;-72
2023/01/15 12:15:12;;;;;;;3.03;1.20;;;9.30;73.70;;;;;;5088561;28;20504;-70
2023/01/15 12:18:00;;;;;;;2.00;1.70;;;9.30;73.60;;;;;;5090635;28;20490;-72
2023/01/15 12:20:39;;;;;;;2.20;1.60;;;9.30;74.00;;;;;;5082556;28;20454;-70
2023/01/15 12:23:37;;;;;;;1.13;0.90;;;9.20;73.80;;;;;;5093479;28;20438;-70
2023/01/15 12:26:16;;;;;;;1.40;0.80;;;9.10;73.60;;;;;;5094160;28;20539;-71
2023/01/15 12:28:53;;;;;;;3.17;1.20;;;9.10;74.10;;;;;;5093936;28;20914;-72
2023/01/15 12:31:27;;;;;;;2.33;1.00;;;9.40;74.60;;;;;;5089734;28;20447;-72
2023/01/15 12:34:04;;;;;;;4.07;1.80;;;9.50;73.00;;;;;;5074829;28;20435;-71
2023/01/15 12:36:40;;;;;;;2.57;1.57;;;9.60;73.00;;;;;;5075497;28;20530;-71
2023/01/15 12:39:16;;;;;;;5.37;1.07;;;9.80;72.80;;;;;;5074478;28;20959;-72
2023/01/15 12:45:04;;;;;;;2.37;1.10;;;11.70;66.00;;;;;;5010084;28;20479;-72
2023/01/15 12:47:38;;;;;;;2.13;1.10;;;13.10;63.20;;;;;;5012514;28;20839;-72
2023/01/15 12:50:22;;;;;;;1.20;1.10;;;14.50;59.60;;;;;;5044701;28;20542;-71
2023/01/15 12:52:57;;;;;;;3.47;1.60;;;15.60;55.50;;;;;;5073796;28;20479;-72
2023/01/15 12:55:29;;;;;;;2.20;1.23;;;16.70;53.80;;;;;;5078639;28;20442;-71
2023/01/15 12:58:00;;;;;;;1.80;1.23;;;17.90;49.70;;;;;;5102828;28;20452;-72
2023/01/15 13:00:30;;;;;;;1.33;1.00;;;19.50;49.10;;;;;;5113616;28;20275;-71
2023/01/15 13:03:10;;;;;;;2.13;1.30;;;20.80;45.50;;;;;;5092441;28;20272;-70
2023/01/15 13:05:41;;;;;;;2.00;1.10;;;22.00;42.80;;;;;;5072489;28;20189;-71
2023/01/15 13:08:18;;;;;;;1.77;1.00;;;23.10;42.70;;;;;;5080244;28;20211;-71
2023/01/15 13:10:48;;;;;;;1.90;1.10;;;24.10;39.00;;;;;;5075257;28;20665;-71
2023/01/15 13:13:18;;;;;;;1.37;1.13;;;24.10;37.10;;;;;;5088380;28;20204;-71
2023/01/15 13:16:00;;;;;;;1.90;1.10;;;24.70;38.40;;;;;;5085123;28;20283;-71
2023/01/15 13:18:36;;;;;;;4.27;1.00;;;25.90;35.90;;;;;;5072309;28;20756;-70
2023/01/15 13:21:11;;;;;;;2.03;1.00;;;26.70;33.30;;;;;;5087348;28;20190;-74
2023/01/15 13:24:13;;;;;;;1.07;0.97;;;27.30;33.20;;;;;;5085275;28;20621;-72
2023/01/15 13:27:03;;;;;;;1.60;1.27;;;26.90;31.60;;;;;;5084711;28;20679;-72
2023/01/15 13:29:43;;;;;;;1.70;1.17;;;27.30;31.40;;;;;;5079235;28;20532;-72
2023/01/15 13:32:15;;;;;;;1.20;1.10;;;27.10;31.00;;;;;;5083421;28;20213;-72
2023/01/15 13:34:47;;;;;;;1.53;1.00;;;27.10;32.00;;;;;;5071873;28;20645;-71
2023/01/15 13:37:23;;;;;;;1.33;1.13;;;27.20;32.30;;;;;;5071505;28;20189;-72
2023/01/15 13:39:53;;;;;;;1.27;1.00;;;27.20;30.40;;;;;;5092212;28;20214;-72
2023/01/15 13:42:32;;;;;;;2.10;1.30;;;25.30;33.00;;;;;;5092078;28;20296;-72
2023/01/15 13:45:02;;;;;;;0.93;0.83;;;23.30;35.90;;;;;;5091862;28;20185;-72
2023/01/15 13:47:33;;;;;;;1.23;0.80;;;21.40;37.20;;;;;;5092260;28;20211;-72
2023/01/15 13:50:05;;;;;;;1.67;1.20;;;19.50;39.10;;;;;;5091661;28;20548;-72
2023/01/15 13:52:34;;;;;;;2.20;1.30;;;18.10;41.50;;;;;;5080153;28;20339;-72
2023/01/15 13:55:10;;;;;;;1.20;0.87;;;17.10;44.00;;;;;;5082510;28;20713;-71
2023/01/15 13:57:40;;;;;;;1.20;0.83;;;16.00;45.40;;;;;;5075861;28;20515;-71
2023/01/15 14:00:08;;;;;;;0.90;0.90;;;15.60;46.70;;;;;;5082016;28;20443;-71